METAR Data
IDs: Format: Raw Decoded Include TAF

Data at: 1326 UTC 11 Dec 2018

K66R 111300Z AUTO 00000KT 10SM CLR M01/M07 A3043 RMK AO2 T10091070
K66R 111135Z AUTO 00000KT 10SM CLR 00/M04 A3042 RMK AO2 T10051043
K66R 110955Z AUTO 00000KT 10SM CLR 00/M05 A3040 RMK AO2 T10011046
K66R 110935Z AUTO 00000KT 10SM CLR 00/M04 A3040 RMK AO2 T00001045
K66R 110730Z AUTO 00000KT 10SM CLR 01/M08 A3042 RMK AO2 T00051083
K66R 110715Z AUTO 00000KT 10SM CLR 01/M08 A3042 RMK AO2 T00051076
K66R 110555Z AUTO 00000KT 10SM CLR 01/M08 A3042 RMK AO2 T00141080 10078 20014 401610014
K66R 110535Z AUTO 00000KT 10SM CLR 02/M06 A3042 RMK AO2 T00181061
K66R 110515Z AUTO 26003KT 10SM CLR 02/M07 A3042 RMK AO2 T00161070
K66R 110455Z AUTO 00000KT 10SM CLR 02/M07 A3042 RMK AO2 T00201071
K66R 110435Z AUTO 00000KT 10SM CLR 02/M07 A3042 RMK AO2 T00211068
K66R 110415Z AUTO 00000KT 10SM CLR 02/M07 A3042 RMK AO2 T00201070
K66R 110355Z AUTO 00000KT 10SM CLR 02/M05 A3042 RMK AO2 T00231046
K66R 110335Z AUTO 00000KT 10SM CLR 02/M06 A3041 RMK AO2 T00231062
K66R 110315Z AUTO 00000KT 10SM CLR 03/M06 A3041 RMK AO2 T00271056
K66R 110255Z AUTO 00000KT 10SM CLR 03/M02 A3041 RMK AO2 T00311021
K66R 110235Z AUTO 00000KT 10SM CLR 03/M07 A3041 RMK AO2 T00301070
K66R 110215Z AUTO 00000KT 10SM CLR 03/M08 A3041 RMK AO2 T00321083
K66R 110155Z AUTO 00000KT 10SM CLR 04/M08 A3041 RMK AO2 T00351081
K66R 110135Z AUTO 00000KT 10SM CLR 04/M03 A3041 RMK AO2 T00401029
K66R 110115Z AUTO 00000KT 10SM CLR 04/M09 A3041 RMK AO2 T00401087
K66R 110055Z AUTO 00000KT 10SM CLR 05/M07 A3041 RMK AO2 T00451066
K66R 110035Z AUTO 00000KT 10SM CLR 05/M08 A3040 RMK AO2 T00531081
K66R 110015Z AUTO 00000KT 10SM CLR 06/M07 A3039 RMK AO2 T00631071
K66R 102350Z AUTO 00000KT 10SM CLR 09/M05 A3038 RMK AO2 T00871046 10161 20087
K66R 102335Z AUTO 00000KT 10SM CLR 11/00 A3038 RMK AO2 T01080001
K66R 102315Z AUTO 00000KT 10SM CLR 14/M02 A3038 RMK AO2 T01401020
K66R 102255Z AUTO 00000KT 10SM CLR 15/M03 A3038 RMK AO2 T01471028
K66R 102235Z AUTO 00000KT 10SM CLR 15/M03 A3037 RMK AO2 T01491029
K66R 102215Z AUTO 32004KT 10SM CLR 16/M03 A3037 RMK AO2 T01551027
K66R 102155Z AUTO 31004KT 10SM CLR 16/M02 A3037 RMK AO2 T01611025
K66R 102135Z AUTO 34003KT 10SM CLR 16/M02 A3037 RMK AO2 T01581019
K66R 102115Z AUTO 31003KT 10SM CLR 16/M01 A3037 RMK AO2 T01611015
K66R 102055Z AUTO 29004KT 10SM CLR 16/M02 A3036 RMK AO2 T01601021
K66R 102035Z AUTO 32005KT 10SM CLR 16/M03 A3036 RMK AO2 T01591033
K66R 102015Z AUTO 28004KT 10SM CLR 16/M02 A3037 RMK AO2 T01581024
K66R 101955Z AUTO 31004KT 10SM CLR 16/M03 A3037 RMK AO2 T01551028
K66R 101935Z AUTO 36004KT 10SM CLR 15/M03 A3038 RMK AO2 T01501027
K66R 101915Z AUTO 33006KT 10SM CLR 15/M02 A3038 RMK AO2 T01501020
K66R 101855Z AUTO 32004KT 10SM CLR 15/M01 A3039 RMK AO2 T01471012
K66R 101835Z AUTO 34007KT 10SM CLR 14/M02 A3041 RMK AO2 T01421018
K66R 101815Z AUTO 02004KT 10SM CLR 14/M01 A3041 RMK AO2 T01391012
K66R 101755Z AUTO 31005KT 10SM CLR 14/M01 A3042 RMK AO2 T01381010 10138 20015
K66R 101735Z AUTO 01003KT 10SM CLR 13/00 A3043 RMK AO2 T01291003
K66R 101715Z AUTO 35003KT 10SM CLR 12/00 A3044 RMK AO2 T01230002
K66R 101655Z AUTO 34005KT 10SM CLR 12/00 A3044 RMK AO2 T01150003
K66R 101635Z AUTO 33005KT 10SM CLR 10/00 A3045 RMK AO2 T01030004
K66R 101615Z AUTO 34004KT 10SM CLR 10/01 A3044 RMK AO2 T00950010
K66R 101555Z AUTO 35004KT 10SM CLR 09/02 A3044 RMK AO2 T00870017
K66R 101535Z AUTO 33006KT 10SM CLR 08/02 A3044 RMK AO2 T00780015
K66R 101515Z AUTO 34005KT 10SM CLR 07/02 A3044 RMK AO2 T00670017
K66R 101455Z AUTO 34007KT 10SM CLR 06/02 A3043 RMK AO2 T00560015
K66R 101435Z AUTO 34007KT 10SM CLR 05/02 A3043 RMK AO2 T00480019
K66R 101415Z AUTO 33006KT 10SM CLR 04/02 A3043 RMK AO2 T00390021
K66R 101355Z AUTO 32003KT 10SM CLR 03/02 A3042 RMK AO2 T00320020
K66R 101335Z AUTO 00000KT 10SM CLR 02/01 A3041 RMK AO2 T00230012
K66R 101315Z AUTO 32003KT 10SM CLR 02/00 A3041 RMK AO2 T00150002
K66R 101255Z AUTO 33004KT 10SM CLR 02/01 A3040 RMK AO2 T00180005
K66R 101235Z AUTO 33004KT 10SM CLR 02/01 A3039 RMK AO2 T00200009
K66R 101215Z AUTO 34004KT 10SM CLR 02/01 A3039 RMK AO2 T00220010
K66R 101155Z AUTO 33005KT 10SM CLR 03/01 A3038 RMK AO2 T00250012 10038 20017
K66R 101135Z AUTO 34006KT 10SM CLR 02/01 A3037 RMK AO2 T00240013
K66R 101115Z AUTO 33004KT 10SM CLR 02/01 A3037 RMK AO2 T00220011
K66R 101050Z AUTO 00000KT 10SM CLR 02/01 A3037 RMK AO2 T00230012
K66R 101035Z AUTO 00000KT 10SM CLR 02/01 A3037 RMK AO2 T00220011
K66R 101015Z AUTO 31003KT 7SM CLR 02/01 A3036 RMK AO2 T00220011
K66R 100955Z AUTO 00000KT 7SM CLR 02/01 A3037 RMK AO2 T00170005
K66R 100935Z AUTO 00000KT 7SM CLR 03/01 A3037 RMK AO2 T00250011
K66R 100915Z AUTO 00000KT 10SM CLR 03/02 A3037 RMK AO2 T00290016
K66R 100855Z AUTO 31003KT 10SM CLR 03/02 A3037 RMK AO2 T00320020
K66R 100835Z AUTO 32003KT 10SM CLR 04/02 A3037 RMK AO2 T00350022
K66R 100815Z AUTO 32004KT 10SM CLR 03/02 A3037 RMK AO2 T00320020
K66R 100755Z AUTO 32003KT 10SM CLR 03/02 A3038 RMK AO2 T00300017
K66R 100735Z AUTO 32003KT 10SM CLR 03/02 A3038 RMK AO2 T00310017
K66R 100715Z AUTO 30003KT 10SM CLR 03/02 A3038 RMK AO2 T00310016
K66R 100655Z AUTO 28004KT 10SM CLR 03/01 A3038 RMK AO2 T00300012
K66R 100635Z AUTO 26003KT 10SM CLR 03/02 A3039 RMK AO2 T00320015
K66R 100615Z AUTO 27003KT 10SM CLR 04/02 A3039 RMK AO2 T00350016
K66R 100550Z AUTO 28003KT 10SM CLR 04/01 A3039 RMK AO2 T00350006 10086 20035 400920035
K66R 100530Z AUTO 00000KT 10SM CLR 04/01 A3039 RMK AO2 T00370014
K66R 100515Z AUTO 29003KT 10SM CLR 04/01 A3039 RMK AO2 T00360011
K66R 100455Z AUTO 28003KT 10SM CLR 04/01 A3039 RMK AO2 T00380006
K66R 100435Z AUTO 28003KT 10SM CLR 05/01 A3039 RMK AO2 T00450014
K66R 100415Z AUTO 00000KT 10SM CLR 05/03 A3039 RMK AO2 T00540025
K66R 100355Z AUTO 00000KT 10SM SCT020 06/03 A3038 RMK AO2 T00640030
K66R 100330Z AUTO 34003KT 10SM OVC020 07/04 A3038 RMK AO2 T00700035
K66R 100315Z AUTO 33004KT 10SM OVC020 07/03 A3038 RMK AO2 T00700034
K66R 100255Z AUTO 33005KT 10SM OVC020 07/03 A3037 RMK AO2 T00740033
K66R 100230Z AUTO 35007KT 10SM OVC020 08/04 A3036 RMK AO2 T00750035
K66R 100215Z AUTO 35006KT 10SM OVC020 07/03 A3036 RMK AO2 T00700032
K66R 100155Z AUTO 36004KT 10SM OVC020 08/03 A3035 RMK AO2 T00750031
K66R 100135Z AUTO 35006KT 10SM OVC020 08/03 A3035 RMK AO2 T00800032